Time;durP1;ratioP1;P1;durP2;ratioP2;P2;SDS_P1;SDS_P2;PMS_P1;PMS_P2;Temp;Humidity;BMP_temperature;BMP_pressure;BME280_temperature;BME280_humidity;BME280_pressure;Samples;Min_cycle;Max_cycle;Signal;HPM_P1;HPM_P2
2020/12/25 00:02:06;;;;;;;1.40;0.90;;;5.20;99.90;;;;;;5024337;28;20198;-84
2020/12/25 00:04:32;;;;;;;1.70;0.60;;;5.30;99.90;;;;;;5021297;28;20581;-83
2020/12/25 00:06:59;;;;;;;3.60;0.87;;;5.40;99.90;;;;;;5050682;28;20598;-82
2020/12/25 00:09:25;;;;;;;2.10;0.70;;;5.20;99.90;;;;;;5052936;28;20665;-85
2020/12/25 00:11:51;;;;;;;1.50;0.70;;;5.20;99.90;;;;;;5013657;28;20254;-83
2020/12/25 00:14:18;;;;;;;4.93;1.50;;;5.30;99.90;;;;;;5010501;28;20214;-81
2020/12/25 00:16:45;;;;;;;3.60;0.80;;;5.10;99.90;;;;;;5009434;28;20268;-81
2020/12/25 00:19:11;;;;;;;4.30;1.10;;;5.30;99.90;;;;;;5008770;28;20584;-79
2020/12/25 00:21:37;;;;;;;2.23;0.77;;;5.30;99.90;;;;;;5020011;28;20256;-84
2020/12/25 00:24:04;;;;;;;3.83;0.73;;;5.20;99.90;;;;;;5011087;28;20202;-83
2020/12/25 00:26:32;;;;;;;3.83;0.53;;;5.20;99.90;;;;;;5033662;28;20612;-84
2020/12/25 00:29:00;;;;;;;1.60;0.60;;;5.30;99.90;;;;;;5011936;28;20206;-81
2020/12/25 00:31:31;;;;;;;3.77;0.63;;;5.20;99.90;;;;;;5014981;28;20234;-84
2020/12/25 00:33:59;;;;;;;3.63;0.97;;;5.20;99.90;;;;;;5025735;28;20213;-85
2020/12/25 00:36:31;;;;;;;4.20;0.77;;;5.20;99.90;;;;;;5031663;28;20214;-83
2020/12/25 00:39:00;;;;;;;2.17;1.00;;;5.20;99.90;;;;;;5016333;28;20226;-82
2020/12/25 00:41:27;;;;;;;2.70;1.20;;;5.20;99.90;;;;;;5023475;28;20197;-81
2020/12/25 00:43:54;;;;;;;1.53;1.00;;;5.30;99.90;;;;;;5025942;28;20775;-83
2020/12/25 00:46:21;;;;;;;2.37;1.23;;;5.30;99.90;;;;;;5017448;28;20206;-82
2020/12/25 00:48:48;;;;;;;3.37;1.63;;;5.30;99.90;;;;;;5013259;28;20216;-80
2020/12/25 00:51:17;;;;;;;6.03;1.90;;;5.20;99.90;;;;;;5019474;28;20221;-83
2020/12/25 00:53:44;;;;;;;1.30;0.80;;;5.30;99.90;;;;;;5024337;28;20225;-84
2020/12/25 00:56:11;;;;;;;1.37;1.07;;;5.20;99.90;;;;;;5020334;28;20193;-83
2020/12/25 00:58:39;;;;;;;1.27;0.70;;;5.20;99.90;;;;;;5013076;28;20236;-84
2020/12/25 01:01:06;;;;;;;2.43;0.87;;;5.10;99.90;;;;;;5036863;28;20562;-84
2020/12/25 01:03:34;;;;;;;1.53;0.70;;;5.10;99.90;;;;;;5020189;28;20260;-81
2020/12/25 01:06:01;;;;;;;2.00;0.40;;;5.00;99.90;;;;;;5021741;28;20196;-82
2020/12/25 01:08:27;;;;;;;3.77;0.70;;;5.10;99.90;;;;;;5020839;28;20201;-84
2020/12/25 01:10:54;;;;;;;5.83;0.80;;;5.10;99.90;;;;;;5015600;28;20238;-81
2020/12/25 01:13:20;;;;;;;3.63;0.77;;;5.00;99.90;;;;;;5033130;28;20318;-83
2020/12/25 01:15:47;;;;;;;1.83;0.70;;;5.00;99.90;;;;;;5023145;28;20202;-81
2020/12/25 01:18:13;;;;;;;0.83;0.47;;;5.00;99.90;;;;;;5004774;28;20290;-83
2020/12/25 01:20:39;;;;;;;1.37;0.40;;;4.90;99.90;;;;;;5010084;28;20263;-82
2020/12/25 01:23:06;;;;;;;1.30;0.50;;;4.90;99.90;;;;;;5007716;28;20287;-83
2020/12/25 01:25:32;;;;;;;2.93;0.43;;;4.80;99.90;;;;;;5008720;28;20280;-82
2020/12/25 01:27:58;;;;;;;1.73;0.63;;;4.80;99.90;;;;;;5019200;28;20241;-81
2020/12/25 01:30:24;;;;;;;2.23;0.57;;;4.90;99.90;;;;;;5014148;28;20198;-83
2020/12/25 01:32:51;;;;;;;3.40;0.60;;;4.90;99.90;;;;;;5005886;28;20201;-82
2020/12/25 01:35:17;;;;;;;2.50;0.73;;;4.90;99.90;;;;;;5035788;28;20221;-82
2020/12/25 01:37:44;;;;;;;2.57;0.77;;;4.90;99.90;;;;;;5006433;28;20198;-81
2020/12/25 01:40:11;;;;;;;1.70;0.60;;;4.90;99.90;;;;;;5037873;28;20280;-81
2020/12/25 01:42:37;;;;;;;6.37;0.77;;;4.90;99.90;;;;;;5039150;28;21255;-87
2020/12/25 01:45:05;;;;;;;3.40;0.80;;;4.80;99.90;;;;;;5012261;28;20194;-88
2020/12/25 01:47:49;;;;;;;1.50;0.77;;;4.80;99.90;;;;;;5024307;28;20197;-85
2020/12/25 01:50:16;;;;;;;2.33;0.50;;;4.80;99.90;;;;;;5004669;28;20240;-84
2020/12/25 01:52:43;;;;;;;4.17;0.70;;;4.70;99.90;;;;;;5034730;28;20274;-86
2020/12/25 01:55:13;;;;;;;3.50;0.70;;;4.80;99.90;;;;;;5004750;28;20250;-88
2020/12/25 01:57:43;;;;;;;7.17;0.53;;;4.80;99.90;;;;;;5019575;28;20290;-87
2020/12/25 02:00:10;;;;;;;2.67;0.47;;;4.80;99.90;;;;;;5034336;28;20196;-87
2020/12/25 02:02:36;;;;;;;2.53;0.47;;;4.80;99.90;;;;;;5031963;28;20210;-88
2020/12/25 02:05:02;;;;;;;0.57;0.57;;;4.70;99.90;;;;;;5012226;28;20251;-89
2020/12/25 02:07:29;;;;;;;2.67;0.77;;;4.60;99.90;;;;;;5005455;28;20237;-89
2020/12/25 02:09:55;;;;;;;1.80;0.67;;;4.70;99.90;;;;;;5037432;28;20398;-89
2020/12/25 02:12:22;;;;;;;1.90;0.70;;;4.90;99.90;;;;;;5004765;28;20252;-88
2020/12/25 02:14:49;;;;;;;1.07;0.67;;;4.90;99.90;;;;;;5040959;28;20209;-85
2020/12/25 02:17:15;;;;;;;1.57;0.67;;;4.90;99.90;;;;;;5041335;28;20390;-86
2020/12/25 02:19:42;;;;;;;2.07;0.70;;;5.00;99.90;;;;;;5008656;28;20238;-89
2020/12/25 02:22:08;;;;;;;1.33;0.80;;;5.00;99.90;;;;;;5019342;28;20252;-84
2020/12/25 02:24:35;;;;;;;2.53;0.80;;;4.90;99.90;;;;;;5023496;28;20239;-86
2020/12/25 02:27:01;;;;;;;3.70;0.87;;;4.70;99.90;;;;;;5040034;28;20236;-84
2020/12/25 02:29:27;;;;;;;4.20;1.47;;;4.70;99.90;;;;;;5003208;28;20284;-85
2020/12/25 02:31:54;;;;;;;1.20;0.80;;;4.80;99.90;;;;;;5007561;28;20248;-86
2020/12/25 02:34:20;;;;;;;1.27;0.90;;;4.80;99.90;;;;;;5015610;28;20739;-86
2020/12/25 02:36:46;;;;;;;1.47;0.60;;;4.70;99.90;;;;;;5013258;28;20228;-83
2020/12/25 02:39:13;;;;;;;1.80;0.70;;;4.70;99.90;;;;;;5005326;28;20667;-87
2020/12/25 02:41:39;;;;;;;2.80;0.83;;;4.50;99.90;;;;;;5010838;28;20617;-85
2020/12/25 02:44:05;;;;;;;4.30;0.60;;;4.60;99.90;;;;;;5014645;28;20227;-87
2020/12/25 02:46:31;;;;;;;3.23;0.73;;;4.50;99.90;;;;;;5014632;28;20201;-85
2020/12/25 02:48:58;;;;;;;2.67;1.00;;;4.80;99.90;;;;;;5012201;28;20200;-85
2020/12/25 02:51:25;;;;;;;2.20;0.50;;;4.70;99.90;;;;;;5038700;28;20201;-86
2020/12/25 02:53:51;;;;;;;1.53;0.60;;;4.60;99.90;;;;;;5057877;28;20287;-86
2020/12/25 02:56:19;;;;;;;1.87;1.03;;;4.60;99.90;;;;;;5025462;28;20254;-85
2020/12/25 02:58:46;;;;;;;3.57;0.60;;;4.70;99.90;;;;;;5026310;28;20196;-89
2020/12/25 03:01:13;;;;;;;2.40;0.77;;;4.80;99.90;;;;;;5026400;28;20200;-89
2020/12/25 03:03:41;;;;;;;2.53;0.43;;;4.80;99.90;;;;;;5029752;28;20228;-89
2020/12/25 03:06:08;;;;;;;1.40;0.60;;;4.70;99.90;;;;;;5016955;28;20205;-90
2020/12/25 03:08:36;;;;;;;0.80;0.37;;;4.70;99.90;;;;;;5034718;28;20231;-89
2020/12/25 03:11:02;;;;;;;0.70;0.50;;;4.80;99.90;;;;;;5052843;28;20201;-89
2020/12/25 03:13:29;;;;;;;3.30;0.80;;;4.70;99.90;;;;;;5014684;28;20230;-90
2020/12/25 03:15:55;;;;;;;0.60;0.40;;;4.90;99.90;;;;;;5016749;28;20225;-86
2020/12/25 03:18:21;;;;;;;1.03;0.47;;;4.80;99.90;;;;;;5018900;28;20244;-89
2020/12/25 03:20:48;;;;;;;5.00;0.47;;;5.00;99.90;;;;;;5030977;28;20209;-85
2020/12/25 03:23:14;;;;;;;1.23;0.77;;;5.10;99.90;;;;;;5026127;28;20303;-89
2020/12/25 03:25:41;;;;;;;1.80;0.50;;;5.10;99.90;;;;;;5039267;28;20271;-89
2020/12/25 03:28:08;;;;;;;2.10;0.50;;;5.00;99.90;;;;;;5026675;28;20637;-90
2020/12/25 03:30:34;;;;;;;3.50;0.80;;;5.00;99.90;;;;;;5024405;28;20686;-90
2020/12/25 03:33:00;;;;;;;0.87;0.67;;;5.10;99.90;;;;;;5016187;28;20223;-85
2020/12/25 03:35:27;;;;;;;1.73;0.80;;;5.00;99.90;;;;;;5015153;28;20670;-89
2020/12/25 03:37:53;;;;;;;0.77;0.30;;;4.90;99.90;;;;;;5014892;28;20266;-89
2020/12/25 03:40:19;;;;;;;1.23;0.40;;;4.90;99.90;;;;;;5019493;28;20209;-87
2020/12/25 03:42:47;;;;;;;1.83;0.60;;;4.80;99.90;;;;;;5019007;28;20676;-81
2020/12/25 03:45:13;;;;;;;2.03;0.80;;;4.90;99.90;;;;;;5030434;28;20531;-79
2020/12/25 03:47:39;;;;;;;0.50;0.30;;;4.90;99.90;;;;;;5009917;28;20212;-87
2020/12/25 03:50:06;;;;;;;2.80;0.47;;;5.00;99.90;;;;;;5014003;28;20213;-89
2020/12/25 03:52:32;;;;;;;1.13;0.30;;;4.80;99.90;;;;;;5014235;28;20388;-84
2020/12/25 03:54:58;;;;;;;0.50;0.23;;;4.70;99.90;;;;;;5025319;28;20229;-84
2020/12/25 03:57:25;;;;;;;4.63;0.93;;;4.90;99.90;;;;;;5017091;28;20251;-84
2020/12/25 03:59:51;;;;;;;0.63;0.20;;;4.90;99.90;;;;;;5031896;28;20273;-86
2020/12/25 04:02:17;;;;;;;1.23;0.30;;;4.90;99.90;;;;;;5023914;28;20196;-86
2020/12/25 04:04:44;;;;;;;1.60;0.57;;;5.00;99.90;;;;;;5012332;28;20672;-86
2020/12/25 04:07:10;;;;;;;1.43;0.30;;;5.10;99.90;;;;;;5012265;28;20271;-89
2020/12/25 04:09:37;;;;;;;0.80;0.40;;;5.10;99.90;;;;;;5023917;28;20274;-84
2020/12/25 04:12:03;;;;;;;2.03;0.53;;;5.20;99.90;;;;;;5020855;28;20236;-86
2020/12/25 04:14:29;;;;;;;1.33;0.53;;;5.10;99.90;;;;;;5008881;28;20212;-87
2020/12/25 04:16:56;;;;;;;0.67;0.37;;;5.10;99.90;;;;;;5039767;28;20208;-88
2020/12/25 04:19:22;;;;;;;2.50;0.60;;;5.10;99.90;;;;;;5029902;28;20198;-88
2020/12/25 04:21:48;;;;;;;2.30;0.50;;;5.20;99.90;;;;;;5033106;28;20272;-88
2020/12/25 04:24:15;;;;;;;0.87;0.50;;;5.10;99.90;;;;;;5012655;28;20204;-83
2020/12/25 04:26:45;;;;;;;0.73;0.37;;;5.10;99.90;;;;;;5022738;28;20206;-86
2020/12/25 04:29:12;;;;;;;0.80;0.50;;;4.90;99.90;;;;;;5027036;28;20267;-89
2020/12/25 04:31:38;;;;;;;3.23;0.60;;;5.10;99.90;;;;;;5013339;28;20640;-89
2020/12/25 04:34:06;;;;;;;0.50;0.47;;;5.00;99.90;;;;;;5020705;28;20684;-88
2020/12/25 04:36:32;;;;;;;2.03;0.50;;;5.00;99.90;;;;;;5011799;28;20270;-86
2020/12/25 04:38:58;;;;;;;4.40;0.67;;;4.90;99.90;;;;;;5019398;28;20204;-88
2020/12/25 04:41:25;;;;;;;7.97;0.70;;;4.80;99.90;;;;;;5009977;28;20209;-89
2020/12/25 04:43:52;;;;;;;2.57;0.80;;;4.90;99.90;;;;;;5020901;28;20204;-88
2020/12/25 04:46:21;;;;;;;1.27;0.70;;;4.90;99.90;;;;;;5021853;28;20209;-85
2020/12/25 04:48:49;;;;;;;2.03;0.73;;;4.80;99.90;;;;;;5023161;28;20275;-87
2020/12/25 04:51:15;;;;;;;3.83;0.90;;;4.70;99.90;;;;;;5053832;28;20197;-85
2020/12/25 04:53:42;;;;;;;0.90;0.60;;;4.70;99.90;;;;;;5013783;28;20209;-87
2020/12/25 04:56:09;;;;;;;1.80;0.70;;;4.60;99.90;;;;;;5026143;28;20196;-87
2020/12/25 04:58:35;;;;;;;1.43;0.60;;;4.60;99.90;;;;;;5011533;28;20718;-87
2020/12/25 05:01:06;;;;;;;1.63;0.60;;;4.60;99.90;;;;;;5024524;28;20240;-87
2020/12/25 05:03:36;;;;;;;3.07;0.83;;;4.50;99.90;;;;;;5022179;28;20268;-88
2020/12/25 05:06:04;;;;;;;0.70;0.50;;;4.50;99.90;;;;;;5022153;28;20300;-88
2020/12/25 05:08:36;;;;;;;1.07;0.90;;;4.50;99.90;;;;;;5011684;28;20708;-85
2020/12/25 05:11:03;;;;;;;3.33;0.60;;;4.50;99.90;;;;;;5033458;28;20476;-89
2020/12/25 05:13:30;;;;;;;1.90;0.70;;;4.60;99.90;;;;;;5023059;28;20286;-86
2020/12/25 05:15:57;;;;;;;1.33;0.60;;;4.60;99.90;;;;;;5014060;28;20260;-87
2020/12/25 05:18:27;;;;;;;4.30;0.80;;;4.60;99.90;;;;;;5008937;28;20205;-86
2020/12/25 05:20:53;;;;;;;4.53;0.60;;;4.50;99.90;;;;;;5039010;28;20263;-84
2020/12/25 05:23:30;;;;;;;3.47;0.40;;;4.50;99.90;;;;;;5025381;28;20637;-87
2020/12/25 05:25:59;;;;;;;1.40;0.60;;;4.50;99.90;;;;;;5029550;28;20621;-86
2020/12/25 05:28:29;;;;;;;5.83;0.60;;;4.60;99.90;;;;;;5032269;28;20197;-86
2020/12/25 05:30:58;;;;;;;1.07;0.50;;;4.50;99.90;;;;;;5009267;28;20256;-85
2020/12/25 05:33:26;;;;;;;3.20;0.50;;;4.60;99.90;;;;;;5022180;28;20201;-85
2020/12/25 05:35:55;;;;;;;0.70;0.50;;;4.60;99.90;;;;;;5053356;28;20204;-87
2020/12/25 05:38:27;;;;;;;3.00;0.67;;;4.50;99.90;;;;;;5021188;28;20594;-86
2020/12/25 05:40:54;;;;;;;1.30;1.10;;;4.70;99.90;;;;;;5008510;28;20225;-87
2020/12/25 05:43:21;;;;;;;2.73;1.23;;;4.70;99.90;;;;;;5025713;28;20212;-86
2020/12/25 05:45:47;;;;;;;2.37;1.77;;;4.70;99.90;;;;;;5023130;28;20258;-85
2020/12/25 05:48:14;;;;;;;2.37;1.70;;;4.80;99.90;;;;;;5030444;28;20262;-87
2020/12/25 05:50:42;;;;;;;1.63;1.50;;;4.60;99.90;;;;;;5008340;28;20268;-86
2020/12/25 05:53:09;;;;;;;1.57;1.37;;;4.60;99.90;;;;;;5027926;28;20220;-82
2020/12/25 05:55:37;;;;;;;2.33;1.60;;;4.70;99.90;;;;;;5039169;28;20636;-86
2020/12/25 05:58:05;;;;;;;2.83;1.30;;;4.70;99.90;;;;;;5013900;28;20669;-87
2020/12/25 06:00:33;;;;;;;3.10;1.63;;;4.60;99.90;;;;;;5023126;28;20201;-86
2020/12/25 06:03:00;;;;;;;1.70;0.93;;;4.60;99.90;;;;;;5037895;28;20209;-88
2020/12/25 06:05:27;;;;;;;3.43;1.00;;;4.70;99.90;;;;;;5028647;28;20236;-86
2020/12/25 06:07:58;;;;;;;4.97;1.00;;;4.70;99.90;;;;;;5022054;28;20194;-90
2020/12/25 06:10:27;;;;;;;2.90;0.80;;;4.60;99.90;;;;;;5062331;28;20193;-89
2020/12/25 06:12:55;;;;;;;2.10;0.87;;;4.60;99.90;;;;;;5033342;28;20204;-82
2020/12/25 06:15:31;;;;;;;3.00;0.70;;;4.60;99.90;;;;;;5041376;28;20232;-89
2020/12/25 06:18:10;;;;;;;4.87;0.80;;;4.60;99.90;;;;;;5029612;28;20197;-91
2020/12/25 06:20:44;;;;;;;4.97;1.27;;;4.60;99.90;;;;;;5026756;28;20269;-89
2020/12/25 06:23:12;;;;;;;3.87;1.47;;;4.70;99.90;;;;;;5024163;28;20673;-89
2020/12/25 06:25:40;;;;;;;1.70;1.13;;;4.60;99.90;;;;;;5043810;28;20209;-89
2020/12/25 06:28:07;;;;;;;2.33;1.10;;;4.60;99.90;;;;;;5028827;28;20252;-87
2020/12/25 06:30:34;;;;;;;1.30;0.90;;;4.60;99.90;;;;;;5046143;28;20206;-88
2020/12/25 06:33:01;;;;;;;2.30;0.80;;;4.60;99.90;;;;;;5022023;28;20281;-88
2020/12/25 06:35:43;;;;;;;1.47;0.70;;;4.50;99.90;;;;;;5013893;28;20262;-87
2020/12/25 06:38:21;;;;;;;1.70;0.80;;;4.50;99.90;;;;;;5027715;28;20188;-87
2020/12/25 06:40:48;;;;;;;4.70;0.73;;;4.50;99.90;;;;;;5024525;28;20200;-86
2020/12/25 06:43:16;;;;;;;1.63;0.70;;;4.50;99.90;;;;;;5020009;28;20209;-84
2020/12/25 06:45:43;;;;;;;2.37;1.00;;;4.50;99.90;;;;;;5041549;28;20204;-87
2020/12/25 06:48:14;;;;;;;4.97;1.67;;;4.60;99.90;;;;;;5023642;28;20270;-86
2020/12/25 06:50:42;;;;;;;3.20;0.80;;;4.60;99.90;;;;;;5039258;28;20212;-85
2020/12/25 06:53:09;;;;;;;1.37;0.80;;;4.50;99.90;;;;;;5023131;28;20213;-87
2020/12/25 06:55:44;;;;;;;3.63;0.97;;;4.50;99.90;;;;;;5038104;28;20615;-87
2020/12/25 06:58:18;;;;;;;4.70;0.90;;;4.30;99.90;;;;;;5011712;28;20215;-88
2020/12/25 07:00:55;;;;;;;4.40;1.00;;;4.40;99.90;;;;;;5035556;28;20233;-80
2020/12/25 07:03:23;;;;;;;4.77;0.90;;;4.40;99.90;;;;;;5025764;28;20225;-85
2020/12/25 07:05:50;;;;;;;2.67;0.70;;;4.40;99.90;;;;;;5015243;28;20197;-87
2020/12/25 07:08:27;;;;;;;4.20;0.93;;;4.50;99.90;;;;;;5015340;28;20343;-87
2020/12/25 07:11:01;;;;;;;5.50;1.53;;;4.50;99.90;;;;;;5022554;28;20242;-88
2020/12/25 07:13:30;;;;;;;0.80;0.63;;;4.50;99.90;;;;;;5030257;28;20198;-84
2020/12/25 07:15:57;;;;;;;3.43;1.10;;;4.50;99.90;;;;;;5039843;28;20204;-86
2020/12/25 07:18:24;;;;;;;4.57;0.93;;;4.60;99.90;;;;;;5019278;28;20252;-84
2020/12/25 07:20:50;;;;;;;3.83;1.00;;;4.50;99.90;;;;;;5024964;28;20233;-85
2020/12/25 07:23:18;;;;;;;2.77;1.07;;;4.60;99.90;;;;;;5008952;28;20230;-87
2020/12/25 07:25:45;;;;;;;2.07;0.73;;;4.60;99.90;;;;;;5024402;28;20280;-84
2020/12/25 07:28:11;;;;;;;5.53;1.30;;;4.50;99.90;;;;;;5006689;28;20295;-85
2020/12/25 07:30:38;;;;;;;2.23;1.10;;;4.60;99.90;;;;;;5017637;28;20201;-86
2020/12/25 07:33:06;;;;;;;2.90;0.90;;;4.50;99.90;;;;;;5009065;28;20198;-85
2020/12/25 07:35:33;;;;;;;1.10;0.67;;;4.60;99.90;;;;;;5021651;28;20299;-85
2020/12/25 07:37:59;;;;;;;2.50;0.70;;;4.50;99.90;;;;;;5022885;28;20197;-80
2020/12/25 07:40:26;;;;;;;7.17;0.90;;;4.50;99.90;;;;;;5007765;28;20292;-83
2020/12/25 07:42:52;;;;;;;6.70;1.47;;;4.60;99.90;;;;;;5015009;28;20243;-84
2020/12/25 07:45:19;;;;;;;3.23;0.90;;;4.60;99.90;;;;;;5006605;28;20209;-86
2020/12/25 07:47:49;;;;;;;2.33;1.23;;;4.70;99.90;;;;;;5011857;28;20205;-86
2020/12/25 07:50:16;;;;;;;8.70;1.20;;;4.60;99.90;;;;;;5020730;28;20198;-85
2020/12/25 07:52:48;;;;;;;4.53;1.13;;;4.60;99.90;;;;;;5033359;28;20221;-88
2020/12/25 07:55:18;;;;;;;1.93;0.90;;;4.50;99.90;;;;;;5051639;28;20274;-86
2020/12/25 07:57:47;;;;;;;4.77;0.80;;;4.50;99.90;;;;;;5055089;28;20200;-85
2020/12/25 08:00:14;;;;;;;7.00;1.27;;;4.50;99.90;;;;;;5013204;28;20193;-83
2020/12/25 08:02:41;;;;;;;2.83;0.83;;;4.60;99.90;;;;;;5028948;28;20204;-85
2020/12/25 08:05:09;;;;;;;6.03;1.30;;;4.70;99.90;;;;;;5013388;28;20244;-88
2020/12/25 08:07:43;;;;;;;7.73;1.17;;;4.60;99.90;;;;;;5015815;28;20236;-84
2020/12/25 08:10:12;;;;;;;3.83;1.20;;;4.60;99.90;;;;;;5028600;28;20599;-82
2020/12/25 08:12:49;;;;;;;5.70;1.23;;;4.70;99.90;;;;;;5024081;28;20232;-83
2020/12/25 08:15:18;;;;;;;5.07;1.23;;;4.80;99.90;;;;;;5024395;28;20311;-82
2020/12/25 08:17:48;;;;;;;7.47;1.13;;;4.80;99.90;;;;;;5025824;28;20664;-83
2020/12/25 08:20:15;;;;;;;5.07;1.00;;;4.90;99.90;;;;;;5027429;28;20198;-83
2020/12/25 08:22:41;;;;;;;1.60;1.00;;;4.90;99.90;;;;;;5023447;28;20240;-80
2020/12/25 08:25:09;;;;;;;2.97;1.00;;;5.00;99.90;;;;;;5032443;28;20585;-85
2020/12/25 08:27:36;;;;;;;4.10;1.27;;;5.00;99.90;;;;;;5039174;28;20202;-88
2020/12/25 08:30:07;;;;;;;3.17;1.83;;;5.30;99.90;;;;;;5011822;28;20205;-91
2020/12/25 08:32:34;;;;;;;4.00;1.17;;;5.30;99.90;;;;;;5023689;28;20216;-91
2020/12/25 08:35:13;;;;;;;3.90;1.10;;;5.30;99.90;;;;;;5021123;28;20252;-87
2020/12/25 08:37:53;;;;;;;3.53;1.20;;;5.30;99.90;;;;;;5021333;28;20205;-85
2020/12/25 08:40:19;;;;;;;1.90;1.70;;;5.20;99.90;;;;;;5034196;28;20241;-92
2020/12/25 08:42:46;;;;;;;4.13;1.53;;;5.30;99.90;;;;;;5013160;28;20578;-85
2020/12/25 08:45:17;;;;;;;4.33;1.60;;;5.20;99.90;;;;;;5021706;28;20215;-90
2020/12/25 08:47:44;;;;;;;5.37;1.70;;;5.30;99.90;;;;;;5008576;28;20275;-87
2020/12/25 08:50:20;;;;;;;5.23;1.50;;;5.30;99.90;;;;;;5013967;28;20201;-88
2020/12/25 08:52:46;;;;;;;10.67;2.27;;;5.40;99.90;;;;;;5027369;28;20208;-89
2020/12/25 08:55:23;;;;;;;2.30;1.53;;;5.30;99.90;;;;;;5009485;28;20619;-90
2020/12/25 08:57:53;;;;;;;7.47;1.57;;;5.40;99.90;;;;;;5028013;28;20246;-89
2020/12/25 09:00:19;;;;;;;6.63;1.70;;;5.30;99.90;;;;;;5022898;28;20204;-87
2020/12/25 09:02:56;;;;;;;3.77;1.30;;;5.50;99.90;;;;;;5018948;28;20677;-92
2020/12/25 09:05:23;;;;;;;8.03;2.00;;;5.50;99.90;;;;;;5024692;28;20711;-86
2020/12/25 09:07:49;;;;;;;10.30;2.07;;;5.60;99.90;;;;;;5037213;28;20193;-87
2020/12/25 09:10:16;;;;;;;4.70;1.60;;;5.50;99.90;;;;;;5020271;28;20226;-86
2020/12/25 09:12:42;;;;;;;6.93;1.50;;;5.50;99.90;;;;;;5009439;28;20213;-84
2020/12/25 09:15:09;;;;;;;2.93;1.10;;;5.30;99.90;;;;;;5013037;28;20213;-85
2020/12/25 09:17:35;;;;;;;4.73;1.70;;;5.40;99.90;;;;;;5024934;28;20727;-84
2020/12/25 09:20:06;;;;;;;3.60;1.27;;;5.50;99.90;;;;;;5029035;28;20311;-84
2020/12/25 09:22:32;;;;;;;5.13;1.00;;;5.50;99.90;;;;;;4994123;28;20323;-85
2020/12/25 09:24:59;;;;;;;5.93;1.30;;;5.70;99.90;;;;;;5005138;28;20209;-88
2020/12/25 09:27:25;;;;;;;3.07;1.53;;;6.20;99.90;;;;;;5009193;28;20213;-88
2020/12/25 09:29:52;;;;;;;4.20;1.10;;;6.40;99.90;;;;;;5034012;28;20202;-87
2020/12/25 09:32:18;;;;;;;7.57;1.77;;;6.70;99.90;;;;;;5011021;28;20595;-88
2020/12/25 09:34:45;;;;;;;8.07;1.50;;;6.90;99.90;;;;;;5027655;28;20221;-83
2020/12/25 09:37:11;;;;;;;5.47;1.70;;;7.00;99.90;;;;;;5006615;28;20287;-85
2020/12/25 09:39:45;;;;;;;5.00;1.20;;;6.90;99.90;;;;;;5025579;28;20195;-88
2020/12/25 09:42:11;;;;;;;4.33;1.20;;;7.00;99.90;;;;;;5030116;28;20211;-88
2020/12/25 09:44:37;;;;;;;3.57;1.23;;;7.30;99.90;;;;;;5013775;28;20207;-85
2020/12/25 09:47:04;;;;;;;5.53;1.10;;;7.30;99.90;;;;;;5025820;28;20210;-86
2020/12/25 09:49:31;;;;;;;4.80;1.07;;;7.50;99.90;;;;;;5020332;28;20221;-86
2020/12/25 09:52:03;;;;;;;5.30;1.20;;;7.60;99.90;;;;;;5003543;28;20332;-88
2020/12/25 09:54:29;;;;;;;4.57;1.10;;;7.40;99.90;;;;;;5051081;28;20223;-88
2020/12/25 09:56:55;;;;;;;4.30;1.80;;;7.50;99.90;;;;;;5021360;28;20650;-84
2020/12/25 09:59:23;;;;;;;7.90;1.27;;;7.50;99.90;;;;;;5010903;28;20190;-90
2020/12/25 10:01:51;;;;;;;3.93;1.43;;;7.80;99.90;;;;;;5022452;28;20243;-87
2020/12/25 10:04:17;;;;;;;4.10;1.07;;;7.60;99.90;;;;;;5024781;28;20678;-86
2020/12/25 10:06:43;;;;;;;4.53;0.93;;;7.50;99.90;;;;;;5005334;28;20221;-86
2020/12/25 10:09:10;;;;;;;4.77;0.97;;;7.50;99.90;;;;;;5030380;28;20207;-85
2020/12/25 10:11:37;;;;;;;4.70;1.03;;;7.80;99.90;;;;;;5030342;28;20344;-83
2020/12/25 10:14:04;;;;;;;3.87;0.80;;;8.10;99.90;;;;;;5031956;28;20245;-88
2020/12/25 10:16:30;;;;;;;2.97;0.90;;;8.40;99.90;;;;;;5022531;28;20213;-89
2020/12/25 10:18:57;;;;;;;3.23;0.97;;;8.50;99.90;;;;;;5026044;28;20208;-84
2020/12/25 10:21:23;;;;;;;3.30;1.20;;;8.10;99.90;;;;;;5021053;28;20211;-84
2020/12/25 10:23:49;;;;;;;6.00;1.20;;;8.30;99.90;;;;;;5010882;28;20235;-90
2020/12/25 10:26:16;;;;;;;5.87;0.80;;;8.40;99.90;;;;;;5021015;28;20246;-85
2020/12/25 10:28:42;;;;;;;5.17;1.03;;;8.30;99.90;;;;;;5012715;28;20204;-88
2020/12/25 10:31:09;;;;;;;5.90;1.30;;;8.20;99.90;;;;;;5009728;28;20257;-88
2020/12/25 10:33:39;;;;;;;4.43;1.03;;;8.20;99.90;;;;;;5018758;28;20204;-85
2020/12/25 10:36:06;;;;;;;4.37;1.20;;;8.30;99.90;;;;;;5012106;28;20234;-85
2020/12/25 10:38:33;;;;;;;5.90;1.20;;;8.60;99.90;;;;;;5024776;28;20207;-83
2020/12/25 10:41:00;;;;;;;2.27;0.67;;;8.60;99.90;;;;;;5024583;28;20315;-86
2020/12/25 10:43:27;;;;;;;5.10;1.03;;;8.70;99.90;;;;;;5023579;28;20215;-84
2020/12/25 10:45:53;;;;;;;6.03;1.57;;;8.70;99.90;;;;;;5012307;28;20202;-83
2020/12/25 10:48:19;;;;;;;6.47;1.30;;;8.50;99.90;;;;;;5019136;28;20553;-83
2020/12/25 10:50:45;;;;;;;5.93;0.90;;;8.50;99.90;;;;;;5025754;28;20247;-82
2020/12/25 10:53:12;;;;;;;5.50;0.93;;;8.50;99.90;;;;;;5010495;28;20264;-83
2020/12/25 10:55:38;;;;;;;1.43;0.73;;;8.50;99.90;;;;;;5028364;28;21120;-82
2020/12/25 10:58:05;;;;;;;3.93;1.10;;;8.70;99.90;;;;;;5011728;28;20288;-82
2020/12/25 11:00:31;;;;;;;6.17;0.87;;;8.70;99.90;;;;;;5034388;28;20204;-79
2020/12/25 11:02:57;;;;;;;2.47;0.80;;;8.80;99.90;;;;;;5008988;28;20269;-81
2020/12/25 11:05:24;;;;;;;3.70;1.33;;;8.60;99.90;;;;;;5004616;28;20201;-81
2020/12/25 11:07:50;;;;;;;6.40;1.40;;;8.60;99.90;;;;;;5006579;28;20201;-79
2020/12/25 11:10:16;;;;;;;2.43;0.80;;;7.90;99.90;;;;;;5028049;28;20309;-80
2020/12/25 11:12:43;;;;;;;3.63;1.03;;;8.10;99.90;;;;;;5008241;28;20403;-83
2020/12/25 11:15:09;;;;;;;3.17;1.20;;;8.40;99.90;;;;;;5009470;28;20274;-82
2020/12/25 11:17:36;;;;;;;3.07;0.73;;;8.20;99.90;;;;;;5022185;28;20211;-81
2020/12/25 11:20:03;;;;;;;3.73;0.80;;;8.30;99.90;;;;;;5011226;28;20207;-80
2020/12/25 11:22:29;;;;;;;3.93;0.90;;;8.50;99.90;;;;;;5013616;28;20674;-80
2020/12/25 11:24:56;;;;;;;4.53;0.70;;;8.00;99.90;;;;;;5038738;28;20274;-79
2020/12/25 11:27:22;;;;;;;5.13;0.83;;;8.30;99.90;;;;;;5015202;28;20277;-80
2020/12/25 11:29:48;;;;;;;4.47;1.00;;;8.30;99.90;;;;;;5020975;28;20217;-82
2020/12/25 11:32:15;;;;;;;2.20;0.73;;;8.00;99.90;;;;;;5009056;28;20653;-81
2020/12/25 11:34:41;;;;;;;5.70;0.97;;;8.20;99.90;;;;;;5009585;28;20287;-80
2020/12/25 11:37:07;;;;;;;1.97;0.83;;;8.50;99.90;;;;;;5007074;28;20208;-80
2020/12/25 11:39:35;;;;;;;4.53;0.70;;;8.70;99.90;;;;;;5008579;28;20280;-80
2020/12/25 11:42:02;;;;;;;7.57;1.10;;;8.70;99.90;;;;;;5007437;28;20294;-81
2020/12/25 11:44:28;;;;;;;5.77;1.23;;;8.80;99.90;;;;;;5019848;28;20200;-80
2020/12/25 11:46:58;;;;;;;1.97;0.60;;;8.90;99.90;;;;;;5018823;28;20240;-79
2020/12/25 11:49:25;;;;;;;9.97;1.10;;;9.30;99.90;;;;;;5029683;28;20203;-80
2020/12/25 11:51:58;;;;;;;5.03;1.40;;;9.00;99.90;;;;;;5050282;28;20213;-81
2020/12/25 11:54:24;;;;;;;3.03;0.60;;;9.40;99.90;;;;;;5028287;28;20230;-81
2020/12/25 11:56:54;;;;;;;5.40;0.90;;;9.80;99.90;;;;;;5007113;28;20347;-82
2020/12/25 11:59:20;;;;;;;3.83;1.00;;;9.90;99.90;;;;;;5016208;28;20203;-82
2020/12/25 12:01:47;;;;;;;2.03;0.77;;;9.90;99.90;;;;;;5019500;28;20312;-80
2020/12/25 12:04:14;;;;;;;4.07;1.07;;;9.80;99.90;;;;;;5016156;28;20358;-78
2020/12/25 12:06:41;;;;;;;10.03;1.13;;;10.40;99.90;;;;;;5024314;28;20278;-81
2020/12/25 12:09:07;;;;;;;2.53;0.93;;;10.70;99.90;;;;;;5022057;28;20659;-81
2020/12/25 12:11:41;;;;;;;5.93;1.10;;;10.20;99.90;;;;;;5033875;28;20215;-81
2020/12/25 12:14:07;;;;;;;6.13;1.10;;;10.10;99.90;;;;;;5018394;28;20208;-81
2020/12/25 12:16:35;;;;;;;3.67;0.97;;;10.40;99.90;;;;;;5024855;28;20196;-81
2020/12/25 12:19:01;;;;;;;5.97;0.90;;;10.20;99.90;;;;;;5057310;28;20233;-81
2020/12/25 12:21:28;;;;;;;2.47;0.80;;;10.00;99.90;;;;;;5008141;28;20288;-81
2020/12/25 12:23:54;;;;;;;3.43;0.90;;;9.80;99.90;;;;;;5004144;28;20671;-81
2020/12/25 12:26:20;;;;;;;7.70;1.20;;;9.30;99.90;;;;;;5024866;28;20204;-81
2020/12/25 12:28:47;;;;;;;6.33;1.00;;;9.40;99.90;;;;;;5010426;28;20230;-81
2020/12/25 12:31:13;;;;;;;6.67;0.90;;;8.90;99.90;;;;;;5020700;28;20204;-81
2020/12/25 12:33:40;;;;;;;2.23;0.90;;;8.70;99.90;;;;;;5009369;28;20292;-81
2020/12/25 12:36:08;;;;;;;3.07;0.90;;;9.30;99.90;;;;;;5009643;28;20214;-81
2020/12/25 12:38:34;;;;;;;1.97;0.80;;;9.50;99.90;;;;;;5023341;28;20198;-81
2020/12/25 12:41:01;;;;;;;5.30;0.80;;;9.90;99.90;;;;;;5007825;28;20215;-81
2020/12/25 12:43:27;;;;;;;4.57;0.93;;;10.10;99.90;;;;;;5019756;28;20200;-80
2020/12/25 12:45:54;;;;;;;4.43;1.47;;;10.10;99.90;;;;;;5019787;28;20206;-80
2020/12/25 12:48:20;;;;;;;5.27;0.90;;;10.70;99.90;;;;;;5007591;28;20290;-79
2020/12/25 12:50:49;;;;;;;6.13;0.77;;;10.20;99.90;;;;;;5007092;28;20257;-83
2020/12/25 12:53:15;;;;;;;4.47;0.93;;;10.40;99.90;;;;;;5017419;28;20231;-82
2020/12/25 12:55:41;;;;;;;6.87;0.90;;;10.60;99.90;;;;;;5021361;28;20681;-80
2020/12/25 12:58:08;;;;;;;2.83;0.93;;;10.40;99.90;;;;;;5020224;28;20283;-77